sensor_id;sensor_type;location;lat;lon;timestamp;pressure;altitude;pressure_sealevel;temperature;humidity
17373;BME280;8803;48.116;11.590;2023-10-19T00:01:18;94172.41;;;11.36;94.86
17373;BME280;8803;48.116;11.590;2023-10-19T00:03:24;94172.75;;;11.37;94.15
17373;BME280;8803;48.116;11.590;2023-10-19T00:05:29;94170.92;;;11.37;93.64
17373;BME280;8803;48.116;11.590;2023-10-19T00:09:48;94172.22;;;11.41;93.37
17373;BME280;8803;48.116;11.590;2023-10-19T00:11:54;94184.89;;;11.39;93.11
17373;BME280;8803;48.116;11.590;2023-10-19T00:14:00;94189.20;;;11.40;92.66
17373;BME280;8803;48.116;11.590;2023-10-19T00:16:06;94179.08;;;11.40;92.48
17373;BME280;8803;48.116;11.590;2023-10-19T00:18:16;94178.05;;;11.41;92.27
17373;BME280;8803;48.116;11.590;2023-10-19T00:20:26;94167.39;;;11.41;92.08
17373;BME280;8803;48.116;11.590;2023-10-19T00:22:33;94168.72;;;11.41;91.95
17373;BME280;8803;48.116;11.590;2023-10-19T00:24:39;94167.73;;;11.42;91.73
17373;BME280;8803;48.116;11.590;2023-10-19T00:26:44;94162.90;;;11.41;91.58
17373;BME280;8803;48.116;11.590;2023-10-19T00:28:51;94155.21;;;11.42;91.42
17373;BME280;8803;48.116;11.590;2023-10-19T00:30:58;94160.54;;;11.42;91.35
17373;BME280;8803;48.116;11.590;2023-10-19T00:33:06;94158.72;;;11.43;91.35
17373;BME280;8803;48.116;11.590;2023-10-19T00:35:12;94159.36;;;11.45;91.14
17373;BME280;8803;48.116;11.590;2023-10-19T00:39:41;94157.50;;;11.49;91.02
17373;BME280;8803;48.116;11.590;2023-10-19T00:41:46;94153.04;;;11.46;90.52
17373;BME280;8803;48.116;11.590;2023-10-19T00:46:08;94149.00;;;11.50;91.77
17373;BME280;8803;48.116;11.590;2023-10-19T00:48:15;94151.70;;;11.46;91.37
17373;BME280;8803;48.116;11.590;2023-10-19T00:50:20;94149.35;;;11.47;91.11
17373;BME280;8803;48.116;11.590;2023-10-19T00:52:27;94137.70;;;11.48;90.82
17373;BME280;8803;48.116;11.590;2023-10-19T00:54:35;94133.02;;;11.50;91.13
17373;BME280;8803;48.116;11.590;2023-10-19T00:56:43;94129.78;;;11.36;92.93
17373;BME280;8803;48.116;11.590;2023-10-19T00:58:51;94132.82;;;11.33;94.87
17373;BME280;8803;48.116;11.590;2023-10-19T01:00:58;94126.81;;;11.35;94.57
17373;BME280;8803;48.116;11.590;2023-10-19T01:05:18;94130.42;;;11.42;95.31
17373;BME280;8803;48.116;11.590;2023-10-19T01:07:28;94125.63;;;11.37;94.97
17373;BME280;8803;48.116;11.590;2023-10-19T01:09:37;94125.94;;;11.38;94.93
17373;BME280;8803;48.116;11.590;2023-10-19T01:13:55;94107.40;;;11.45;93.97
17373;BME280;8803;48.116;11.590;2023-10-19T01:16:02;94110.29;;;11.39;93.63
17373;BME280;8803;48.116;11.590;2023-10-19T01:20:23;94111.77;;;11.42;94.31
17373;BME280;8803;48.116;11.590;2023-10-19T01:24:43;94127.92;;;11.40;93.21
17373;BME280;8803;48.116;11.590;2023-10-19T01:26:47;94126.59;;;11.40;93.21
17373;BME280;8803;48.116;11.590;2023-10-19T01:31:05;94131.72;;;11.46;92.81
17373;BME280;8803;48.116;11.590;2023-10-19T01:33:11;94139.22;;;11.42;92.07
17373;BME280;8803;48.116;11.590;2023-10-19T01:35:18;94138.54;;;11.44;91.84
17373;BME280;8803;48.116;11.590;2023-10-19T01:37:22;94153.84;;;11.46;91.50
17373;BME280;8803;48.116;11.590;2023-10-19T01:39:27;94135.53;;;11.47;91.23
17373;BME280;8803;48.116;11.590;2023-10-19T01:41:31;94123.87;;;11.48;91.22
17373;BME280;8803;48.116;11.590;2023-10-19T01:43:37;94124.68;;;11.49;90.94
17373;BME280;8803;48.116;11.590;2023-10-19T01:45:43;94115.70;;;11.50;90.71
17373;BME280;8803;48.116;11.590;2023-10-19T01:47:48;94128.83;;;11.51;90.54
17373;BME280;8803;48.116;11.590;2023-10-19T01:49:54;94129.17;;;11.52;90.48
17373;BME280;8803;48.116;11.590;2023-10-19T01:51:58;94126.81;;;11.53;90.36
17373;BME280;8803;48.116;11.590;2023-10-19T01:54:04;94124.14;;;11.53;90.16
17373;BME280;8803;48.116;11.590;2023-10-19T01:56:09;94124.14;;;11.53;89.97
17373;BME280;8803;48.116;11.590;2023-10-19T02:00:28;94113.26;;;11.59;89.98
17373;BME280;8803;48.116;11.590;2023-10-19T02:02:32;94120.30;;;11.56;89.54
17373;BME280;8803;48.116;11.590;2023-10-19T02:04:38;94114.97;;;11.56;90.19
17373;BME280;8803;48.116;11.590;2023-10-19T02:06:43;94110.63;;;11.55;89.93
17373;BME280;8803;48.116;11.590;2023-10-19T02:11:04;94086.94;;;11.60;89.71
17373;BME280;8803;48.116;11.590;2023-10-19T02:13:10;94094.14;;;11.55;89.54
17373;BME280;8803;48.116;11.590;2023-10-19T02:15:18;94113.45;;;11.57;89.49
17373;BME280;8803;48.116;11.590;2023-10-19T02:17:24;94115.12;;;11.58;89.44
17373;BME280;8803;48.116;11.590;2023-10-19T02:19:29;94116.76;;;11.59;89.17
17373;BME280;8803;48.116;11.590;2023-10-19T02:21:35;94117.59;;;11.60;88.99
17373;BME280;8803;48.116;11.590;2023-10-19T02:25:55;94111.38;;;11.67;88.95
17373;BME280;8803;48.116;11.590;2023-10-19T02:28:00;94109.06;;;11.64;88.53
17373;BME280;8803;48.116;11.590;2023-10-19T02:32:20;94107.87;;;11.71;88.67
17373;BME280;8803;48.116;11.590;2023-10-19T02:34:25;94111.38;;;11.67;88.21
17373;BME280;8803;48.116;11.590;2023-10-19T02:36:30;94110.38;;;11.68;88.12
17373;BME280;8803;48.116;11.590;2023-10-19T02:38:36;94107.22;;;11.69;88.06
17373;BME280;8803;48.116;11.590;2023-10-19T02:40:40;94101.70;;;11.70;87.96
17373;BME280;8803;48.116;11.590;2023-10-19T02:42:45;94102.03;;;11.71;87.84
17373;BME280;8803;48.116;11.590;2023-10-19T02:44:50;94108.70;;;11.71;87.82
17373;BME280;8803;48.116;11.590;2023-10-19T02:46:56;94099.67;;;11.72;87.73
17373;BME280;8803;48.116;11.590;2023-10-19T02:49:05;94100.02;;;11.73;87.63
17373;BME280;8803;48.116;11.590;2023-10-19T02:51:12;94097.35;;;11.73;87.58
17373;BME280;8803;48.116;11.590;2023-10-19T02:53:17;94091.83;;;11.75;87.41
17373;BME280;8803;48.116;11.590;2023-10-19T02:55:22;94093.16;;;11.75;87.36
17373;BME280;8803;48.116;11.590;2023-10-19T02:57:28;94085.80;;;11.77;87.32
17373;BME280;8803;48.116;11.590;2023-10-19T02:59:33;94086.64;;;11.77;87.20
17373;BME280;8803;48.116;11.590;2023-10-19T03:01:38;94081.62;;;11.78;87.10
17373;BME280;8803;48.116;11.590;2023-10-19T03:03:45;94081.62;;;11.78;87.03
17373;BME280;8803;48.116;11.590;2023-10-19T03:08:04;94075.55;;;11.84;87.15
17373;BME280;8803;48.116;11.590;2023-10-19T03:10:11;94086.26;;;11.80;86.88
17373;BME280;8803;48.116;11.590;2023-10-19T03:12:19;94070.27;;;11.80;86.82
17373;BME280;8803;48.116;11.590;2023-10-19T03:14:25;94069.42;;;11.80;86.84
17373;BME280;8803;48.116;11.590;2023-10-19T03:16:30;94071.09;;;11.81;86.82
17373;BME280;8803;48.116;11.590;2023-10-19T03:18:34;94066.76;;;11.80;86.81
17373;BME280;8803;48.116;11.590;2023-10-19T03:20:39;94063.59;;;11.80;86.74
17373;BME280;8803;48.116;11.590;2023-10-19T03:22:44;94066.27;;;11.80;86.67
17373;BME280;8803;48.116;11.590;2023-10-19T03:24:49;94060.43;;;11.81;86.65
17373;BME280;8803;48.116;11.590;2023-10-19T03:29:13;94055.05;;;11.85;86.92
17373;BME280;8803;48.116;11.590;2023-10-19T03:31:20;94056.93;;;11.80;86.56
17373;BME280;8803;48.116;11.590;2023-10-19T03:33:26;94045.96;;;11.79;86.57
17373;BME280;8803;48.116;11.590;2023-10-19T03:35:30;94054.27;;;11.80;86.59
17373;BME280;8803;48.116;11.590;2023-10-19T03:37:37;94049.77;;;11.81;88.44
17373;BME280;8803;48.116;11.590;2023-10-19T03:39:42;94044.09;;;11.80;88.15
17373;BME280;8803;48.116;11.590;2023-10-19T03:41:49;94040.09;;;11.80;87.85
17373;BME280;8803;48.116;11.590;2023-10-19T03:43:56;94044.09;;;11.80;87.72
17373;BME280;8803;48.116;11.590;2023-10-19T03:46:03;94037.77;;;11.81;87.44
17373;BME280;8803;48.116;11.590;2023-10-19T03:48:13;94036.09;;;11.80;87.37
17373;BME280;8803;48.116;11.590;2023-10-19T03:50:20;94035.10;;;11.81;87.14
17373;BME280;8803;48.116;11.590;2023-10-19T03:52:25;94034.61;;;11.81;87.08
17373;BME280;8803;48.116;11.590;2023-10-19T03:54:31;94032.24;;;11.82;87.00
17373;BME280;8803;48.116;11.590;2023-10-19T03:56:39;94025.58;;;11.82;86.86
17373;BME280;8803;48.116;11.590;2023-10-19T03:58:44;94023.25;;;11.83;86.77
17373;BME280;8803;48.116;11.590;2023-10-19T04:00:51;94027.55;;;11.84;86.92
17373;BME280;8803;48.116;11.590;2023-10-19T04:05:12;94026.70;;;11.88;86.99
17373;BME280;8803;48.116;11.590;2023-10-19T04:07:20;94033.22;;;11.85;86.59
17373;BME280;8803;48.116;11.590;2023-10-19T04:09:25;94028.89;;;11.84;86.55
17373;BME280;8803;48.116;11.590;2023-10-19T04:11:32;94030.55;;;11.85;86.48
17373;BME280;8803;48.116;11.590;2023-10-19T04:13:39;94029.03;;;11.87;86.36
17373;BME280;8803;48.116;11.590;2023-10-19T04:15:44;94026.86;;;11.86;86.31
17373;BME280;8803;48.116;11.590;2023-10-19T04:17:49;94029.36;;;11.88;86.27
17373;BME280;8803;48.116;11.590;2023-10-19T04:19:56;94026.51;;;11.89;86.21
17373;BME280;8803;48.116;11.590;2023-10-19T04:22:00;94027.34;;;11.90;86.13
17373;BME280;8803;48.116;11.590;2023-10-19T04:24:07;94018.01;;;11.90;86.05
17373;BME280;8803;48.116;11.590;2023-10-19T04:26:12;94016.14;;;11.90;85.96
17373;BME280;8803;48.116;11.590;2023-10-19T04:28:19;94022.95;;;11.93;85.86
17373;BME280;8803;48.116;11.590;2023-10-19T04:30:27;94019.29;;;11.94;85.80
17373;BME280;8803;48.116;11.590;2023-10-19T04:32:32;94014.26;;;11.95;85.68
17373;BME280;8803;48.116;11.590;2023-10-19T04:34:39;94015.43;;;11.97;85.59
17373;BME280;8803;48.116;11.590;2023-10-19T04:36:43;94020.57;;;11.98;85.56
17373;BME280;8803;48.116;11.590;2023-10-19T04:38:48;94004.07;;;11.99;85.50
17373;BME280;8803;48.116;11.590;2023-10-19T04:40:52;93996.70;;;12.01;85.42
17373;BME280;8803;48.116;11.590;2023-10-19T04:42:57;93997.84;;;12.02;85.25
17373;BME280;8803;48.116;11.590;2023-10-19T04:45:04;94003.48;;;12.03;85.17
17373;BME280;8803;48.116;11.590;2023-10-19T04:47:09;94005.16;;;12.04;85.12
17373;BME280;8803;48.116;11.590;2023-10-19T04:49:15;94000.13;;;12.05;85.07
17373;BME280;8803;48.116;11.590;2023-10-19T04:51:20;94004.46;;;12.06;85.21
17373;BME280;8803;48.116;11.590;2023-10-19T04:53:24;94004.27;;;12.08;86.55
17373;BME280;8803;48.116;11.590;2023-10-19T04:57:43;94007.08;;;12.10;87.09
17373;BME280;8803;48.116;11.590;2023-10-19T05:01:59;94007.91;;;12.11;87.41
17373;BME280;8803;48.116;11.590;2023-10-19T05:04:05;94005.59;;;12.08;86.54
17373;BME280;8803;48.116;11.590;2023-10-19T05:06:10;94008.60;;;12.09;86.29
17373;BME280;8803;48.116;11.590;2023-10-19T05:08:15;93999.57;;;12.10;86.00
17373;BME280;8803;48.116;11.590;2023-10-19T05:12:34;93996.68;;;12.15;86.09
17373;BME280;8803;48.116;11.590;2023-10-19T05:14:39;93993.54;;;12.12;85.68
17373;BME280;8803;48.116;11.590;2023-10-19T05:16:44;93990.38;;;12.12;85.60
17373;BME280;8803;48.116;11.590;2023-10-19T05:18:48;93992.54;;;12.13;85.48
17373;BME280;8803;48.116;11.590;2023-10-19T05:20:53;93983.51;;;12.14;85.37
17373;BME280;8803;48.116;11.590;2023-10-19T05:22:59;93979.50;;;12.14;85.29
17373;BME280;8803;48.116;11.590;2023-10-19T05:25:05;93986.17;;;12.14;85.27
17373;BME280;8803;48.116;11.590;2023-10-19T05:27:10;93987.34;;;12.15;85.17
17373;BME280;8803;48.116;11.590;2023-10-19T05:29:16;93986.52;;;12.15;85.19
17373;BME280;8803;48.116;11.590;2023-10-19T05:31:21;93983.34;;;12.15;85.12
17373;BME280;8803;48.116;11.590;2023-10-19T05:33:27;93990.02;;;12.15;85.08
17373;BME280;8803;48.116;11.590;2023-10-19T05:35:32;93995.34;;;12.15;85.01
17373;BME280;8803;48.116;11.590;2023-10-19T05:39:56;93989.26;;;12.21;85.11
17373;BME280;8803;48.116;11.590;2023-10-19T05:42:01;93996.29;;;12.18;84.75
17373;BME280;8803;48.116;11.590;2023-10-19T05:44:07;93990.95;;;12.18;84.68
17373;BME280;8803;48.116;11.590;2023-10-19T05:46:11;93986.45;;;12.19;84.67
17373;BME280;8803;48.116;11.590;2023-10-19T05:48:19;93987.59;;;12.20;84.53
17373;BME280;8803;48.116;11.590;2023-10-19T05:50:23;93989.26;;;12.21;84.50
17373;BME280;8803;48.116;11.590;2023-10-19T05:54:41;93985.14;;;12.29;84.65
17373;BME280;8803;48.116;11.590;2023-10-19T05:59:05;93975.44;;;12.32;84.56
17373;BME280;8803;48.116;11.590;2023-10-19T06:01:09;93974.47;;;12.29;84.21
17373;BME280;8803;48.116;11.590;2023-10-19T06:03:14;93977.77;;;12.31;84.40
17373;BME280;8803;48.116;11.590;2023-10-19T06:05:21;93981.91;;;12.34;84.40
17373;BME280;8803;48.116;11.590;2023-10-19T06:07:26;93980.88;;;12.35;84.40
17373;BME280;8803;48.116;11.590;2023-10-19T06:11:47;93977.79;;;12.42;84.50
17373;BME280;8803;48.116;11.590;2023-10-19T06:16:06;93975.55;;;12.45;84.22
17373;BME280;8803;48.116;11.590;2023-10-19T06:18:11;93976.78;;;12.43;83.81
17373;BME280;8803;48.116;11.590;2023-10-19T06:20:17;93981.42;;;12.45;83.67
17373;BME280;8803;48.116;11.590;2023-10-19T06:24:39;93986.94;;;12.54;83.60
17373;BME280;8803;48.116;11.590;2023-10-19T06:26:43;93988.34;;;12.50;83.39
17373;BME280;8803;48.116;11.590;2023-10-19T06:28:49;93990.64;;;12.53;83.77
17373;BME280;8803;48.116;11.590;2023-10-19T06:30:54;93992.81;;;12.53;83.38
17373;BME280;8803;48.116;11.590;2023-10-19T06:35:16;93994.82;;;12.62;84.94
17373;BME280;8803;48.116;11.590;2023-10-19T06:37:21;93993.38;;;12.59;83.80
17373;BME280;8803;48.116;11.590;2023-10-19T06:39:26;93992.16;;;12.62;83.42
17373;BME280;8803;48.116;11.590;2023-10-19T06:41:31;93979.77;;;12.65;83.31
17373;BME280;8803;48.116;11.590;2023-10-19T06:45:49;93968.26;;;12.75;83.59
17373;BME280;8803;48.116;11.590;2023-10-19T06:47:55;93968.45;;;12.74;82.86
17373;BME280;8803;48.116;11.590;2023-10-19T06:50:01;93971.27;;;12.76;82.62
17373;BME280;8803;48.116;11.590;2023-10-19T06:52:08;93969.22;;;12.78;82.46
17373;BME280;8803;48.116;11.590;2023-10-19T06:54:14;93964.31;;;12.82;82.42
17373;BME280;8803;48.116;11.590;2023-10-19T06:56:18;93965.35;;;12.81;84.96
17373;BME280;8803;48.116;11.590;2023-10-19T06:58:23;93963.81;;;12.82;85.03
17373;BME280;8803;48.116;11.590;2023-10-19T07:00:29;93960.81;;;12.81;86.21
17373;BME280;8803;48.116;11.590;2023-10-19T07:02:33;93965.78;;;12.84;85.89
17373;BME280;8803;48.116;11.590;2023-10-19T07:04:38;93968.05;;;12.87;84.65
17373;BME280;8803;48.116;11.590;2023-10-19T07:06:43;93966.98;;;12.92;84.14
17373;BME280;8803;48.116;11.590;2023-10-19T07:08:50;93964.73;;;12.96;83.49
17373;BME280;8803;48.116;11.590;2023-10-19T07:10:54;93965.37;;;12.98;83.19
17373;BME280;8803;48.116;11.590;2023-10-19T07:12:59;93964.50;;;13.01;86.80
17373;BME280;8803;48.116;11.590;2023-10-19T07:17:24;93960.63;;;13.14;85.09
17373;BME280;8803;48.116;11.590;2023-10-19T07:19:28;93965.65;;;13.13;83.99
17373;BME280;8803;48.116;11.590;2023-10-19T07:21:33;93968.25;;;13.17;83.23
17373;BME280;8803;48.116;11.590;2023-10-19T07:23:39;93963.95;;;13.23;83.14
17373;BME280;8803;48.116;11.590;2023-10-19T07:25:44;93970.89;;;13.28;82.57
17373;BME280;8803;48.116;11.590;2023-10-19T07:27:51;93969.61;;;13.34;81.97
17373;BME280;8803;48.116;11.590;2023-10-19T07:29:56;93968.83;;;13.40;81.55
17373;BME280;8803;48.116;11.590;2023-10-19T07:34:19;93960.94;;;13.60;80.91
17373;BME280;8803;48.116;11.590;2023-10-19T07:38:38;93961.03;;;13.73;80.02
17373;BME280;8803;48.116;11.590;2023-10-19T07:40:43;93965.34;;;13.74;79.50
17373;BME280;8803;48.116;11.590;2023-10-19T07:42:48;93968.55;;;13.80;79.21
17373;BME280;8803;48.116;11.590;2023-10-19T07:44:54;93972.31;;;13.86;79.03
17373;BME280;8803;48.116;11.590;2023-10-19T07:46:59;93963.99;;;13.91;80.01
17373;BME280;8803;48.116;11.590;2023-10-19T07:49:04;93966.91;;;13.96;80.99
17373;BME280;8803;48.116;11.590;2023-10-19T07:51:10;93970.39;;;13.97;82.77
17373;BME280;8803;48.116;11.590;2023-10-19T07:53:15;93962.72;;;14.04;84.13
17373;BME280;8803;48.116;11.590;2023-10-19T07:55:21;93963.77;;;14.10;83.45
17373;BME280;8803;48.116;11.590;2023-10-19T07:57:26;93956.59;;;14.17;82.34
17373;BME280;8803;48.116;11.590;2023-10-19T07:59:32;93956.30;;;14.22;81.08
17373;BME280;8803;48.116;11.590;2023-10-19T08:03:50;93952.98;;;14.38;82.90
17373;BME280;8803;48.116;11.590;2023-10-19T08:05:55;93952.66;;;14.37;82.88
17373;BME280;8803;48.116;11.590;2023-10-19T08:07:59;93951.26;;;14.41;84.27
17373;BME280;8803;48.116;11.590;2023-10-19T08:10:10;93949.83;;;14.45;84.41
17373;BME280;8803;48.116;11.590;2023-10-19T08:12:15;93943.84;;;14.49;83.68
17373;BME280;8803;48.116;11.590;2023-10-19T08:14:19;93943.23;;;14.54;82.48
17373;BME280;8803;48.116;11.590;2023-10-19T08:16:24;93937.78;;;14.58;82.06
17373;BME280;8803;48.116;11.590;2023-10-19T08:18:30;93932.86;;;14.61;82.00
17373;BME280;8803;48.116;11.590;2023-10-19T08:20:38;93931.22;;;14.67;83.30
17373;BME280;8803;48.116;11.590;2023-10-19T08:22:42;93920.72;;;14.72;84.31
17373;BME280;8803;48.116;11.590;2023-10-19T08:24:49;93916.39;;;14.77;86.10
17373;BME280;8803;48.116;11.590;2023-10-19T08:26:54;93913.94;;;14.82;86.53
17373;BME280;8803;48.116;11.590;2023-10-19T08:28:59;93914.56;;;14.91;87.36
17373;BME280;8803;48.116;11.590;2023-10-19T08:31:07;93914.86;;;14.98;88.04
17373;BME280;8803;48.116;11.590;2023-10-19T08:33:10;93910.63;;;15.07;87.87
17373;BME280;8803;48.116;11.590;2023-10-19T08:35:18;93912.91;;;15.16;87.73
17373;BME280;8803;48.116;11.590;2023-10-19T08:37:23;93914.86;;;15.25;87.78
17373;BME280;8803;48.116;11.590;2023-10-19T08:39:29;93921.02;;;15.32;87.92
17373;BME280;8803;48.116;11.590;2023-10-19T08:41:35;93914.63;;;15.39;87.83
17373;BME280;8803;48.116;11.590;2023-10-19T08:43:41;93916.80;;;15.46;87.85
17373;BME280;8803;48.116;11.590;2023-10-19T08:45:46;93911.94;;;15.52;87.47
17373;BME280;8803;48.116;11.590;2023-10-19T08:50:08;93904.19;;;15.66;85.29
17373;BME280;8803;48.116;11.590;2023-10-19T08:52:16;93906.65;;;15.68;84.12
17373;BME280;8803;48.116;11.590;2023-10-19T08:54:21;93906.75;;;15.70;83.45
17373;BME280;8803;48.116;11.590;2023-10-19T08:56:26;93909.00;;;15.73;82.67
17373;BME280;8803;48.116;11.590;2023-10-19T08:58:31;93906.19;;;15.77;83.69
17373;BME280;8803;48.116;11.590;2023-10-19T09:00:46;93912.81;;;15.82;83.27
17373;BME280;8803;48.116;11.590;2023-10-19T09:02:52;93905.38;;;15.84;82.80
17373;BME280;8803;48.116;11.590;2023-10-19T09:04:57;93910.08;;;15.88;83.48
17373;BME280;8803;48.116;11.590;2023-10-19T09:07:04;93907.28;;;15.92;84.25
17373;BME280;8803;48.116;11.590;2023-10-19T09:11:24;93902.09;;;16.04;84.40
17373;BME280;8803;48.116;11.590;2023-10-19T09:13:32;93907.45;;;16.04;84.80
17373;BME280;8803;48.116;11.590;2023-10-19T09:15:38;93903.30;;;16.08;84.88
17373;BME280;8803;48.116;11.590;2023-10-19T09:17:44;93902.35;;;16.11;85.12
17373;BME280;8803;48.116;11.590;2023-10-19T09:19:49;93901.20;;;16.16;85.92
17373;BME280;8803;48.116;11.590;2023-10-19T09:21:54;93903.98;;;16.19;85.07
17373;BME280;8803;48.116;11.590;2023-10-19T09:23:59;93904.15;;;16.24;85.16
17373;BME280;8803;48.116;11.590;2023-10-19T09:26:04;93905.91;;;16.27;84.14
17373;BME280;8803;48.116;11.590;2023-10-19T09:28:09;93898.97;;;16.29;82.97
17373;BME280;8803;48.116;11.590;2023-10-19T09:30:16;93900.70;;;16.32;82.82
17373;BME280;8803;48.116;11.590;2023-10-19T09:32:22;93894.31;;;16.33;82.45
17373;BME280;8803;48.116;11.590;2023-10-19T09:36:41;93893.22;;;16.41;81.61
17373;BME280;8803;48.116;11.590;2023-10-19T09:38:48;93896.35;;;16.38;81.12
17373;BME280;8803;48.116;11.590;2023-10-19T09:40:54;93897.16;;;16.38;80.80
17373;BME280;8803;48.116;11.590;2023-10-19T09:45:18;93896.09;;;16.46;79.86
17373;BME280;8803;48.116;11.590;2023-10-19T09:49:39;93889.38;;;16.46;78.93
17373;BME280;8803;48.116;11.590;2023-10-19T09:51:44;93884.65;;;16.41;78.23
17373;BME280;8803;48.116;11.590;2023-10-19T09:56:10;93883.56;;;16.49;78.99
17373;BME280;8803;48.116;11.590;2023-10-19T10:00:30;93888.86;;;16.53;78.66
17373;BME280;8803;48.116;11.590;2023-10-19T10:02:35;93890.41;;;16.51;79.11
17373;BME280;8803;48.116;11.590;2023-10-19T10:04:40;93886.05;;;16.57;79.89
17373;BME280;8803;48.116;11.590;2023-10-19T10:09:12;93866.80;;;16.76;79.98
17373;BME280;8803;48.116;11.590;2023-10-19T10:11:22;93863.36;;;16.78;80.08
17373;BME280;8803;48.116;11.590;2023-10-19T10:13:42;93858.45;;;16.84;80.13
17373;BME280;8803;48.116;11.590;2023-10-19T10:15:49;93848.16;;;16.90;79.74
17373;BME280;8803;48.116;11.590;2023-10-19T10:17:54;93852.43;;;16.97;80.50
17373;BME280;8803;48.116;11.590;2023-10-19T10:20:31;93857.16;;;17.02;80.66
17373;BME280;8803;48.116;11.590;2023-10-19T10:22:36;93864.48;;;17.04;80.88
17373;BME280;8803;48.116;11.590;2023-10-19T10:24:42;93862.48;;;17.08;80.83
17373;BME280;8803;48.116;11.590;2023-10-19T10:29:23;93862.05;;;17.20;82.45
17373;BME280;8803;48.116;11.590;2023-10-19T10:31:29;93866.09;;;17.20;81.62
17373;BME280;8803;48.116;11.590;2023-10-19T10:33:43;93858.42;;;17.24;82.45
17373;BME280;8803;48.116;11.590;2023-10-19T10:35:58;93851.03;;;17.28;82.67
17373;BME280;8803;48.116;11.590;2023-10-19T10:38:04;93847.97;;;17.34;82.40
17373;BME280;8803;48.116;11.590;2023-10-19T10:40:11;93845.45;;;17.39;81.88
17373;BME280;8803;48.116;11.590;2023-10-19T10:44:40;93842.86;;;17.51;82.71
17373;BME280;8803;48.116;11.590;2023-10-19T10:46:45;93847.61;;;17.49;83.01
17373;BME280;8803;48.116;11.590;2023-10-19T10:48:50;93842.11;;;17.53;82.82
17373;BME280;8803;48.116;11.590;2023-10-19T10:50:55;93836.50;;;17.54;82.53
17373;BME280;8803;48.116;11.590;2023-10-19T10:52:59;93836.30;;;17.56;82.92
17373;BME280;8803;48.116;11.590;2023-10-19T10:55:09;93831.43;;;17.55;83.76
17373;BME280;8803;48.116;11.590;2023-10-19T10:57:14;93828.59;;;17.59;84.09
17373;BME280;8803;48.116;11.590;2023-10-19T10:59:19;93826.58;;;17.64;83.89
17373;BME280;8803;48.116;11.590;2023-10-19T11:01:32;93821.88;;;17.68;83.60
17373;BME280;8803;48.116;11.590;2023-10-19T11:03:37;93817.16;;;17.73;83.08
17373;BME280;8803;48.116;11.590;2023-10-19T11:05:41;93816.54;;;17.80;82.81
17373;BME280;8803;48.116;11.590;2023-10-19T11:08:09;93816.18;;;17.85;82.66
17373;BME280;8803;48.116;11.590;2023-10-19T11:10:16;93809.06;;;17.91;82.45
17373;BME280;8803;48.116;11.590;2023-10-19T11:14:35;93804.62;;;18.05;82.41
17373;BME280;8803;48.116;11.590;2023-10-19T11:16:40;93810.31;;;18.06;82.02
17373;BME280;8803;48.116;11.590;2023-10-19T11:18:48;93811.50;;;18.10;81.12
17373;BME280;8803;48.116;11.590;2023-10-19T11:23:12;93806.30;;;18.27;80.92
17373;BME280;8803;48.116;11.590;2023-10-19T11:25:21;93811.45;;;18.29;80.39
17373;BME280;8803;48.116;11.590;2023-10-19T11:27:27;93806.96;;;18.32;80.75
17373;BME280;8803;48.116;11.590;2023-10-19T11:29:32;93809.48;;;18.36;81.26
17373;BME280;8803;48.116;11.590;2023-10-19T11:31:36;93800.17;;;18.41;81.76
17373;BME280;8803;48.116;11.590;2023-10-19T11:33:43;93799.97;;;18.42;81.79
17373;BME280;8803;48.116;11.590;2023-10-19T11:35:48;93790.40;;;18.46;81.69
17373;BME280;8803;48.116;11.590;2023-10-19T11:37:54;93781.77;;;18.47;78.45
17373;BME280;8803;48.116;11.590;2023-10-19T11:39:59;93775.79;;;18.45;77.23
17373;BME280;8803;48.116;11.590;2023-10-19T11:44:15;93750.49;;;18.37;81.89
17373;BME280;8803;48.116;11.590;2023-10-19T11:46:19;93744.17;;;18.31;78.19
17373;BME280;8803;48.116;11.590;2023-10-19T11:48:25;93746.13;;;18.24;75.59
17373;BME280;8803;48.116;11.590;2023-10-19T11:50:30;93740.16;;;18.22;76.60
17373;BME280;8803;48.116;11.590;2023-10-19T11:52:35;93734.17;;;18.20;77.30
17373;BME280;8803;48.116;11.590;2023-10-19T11:54:40;93739.32;;;18.22;78.75
17373;BME280;8803;48.116;11.590;2023-10-19T11:56:45;93739.88;;;18.21;81.18
17373;BME280;8803;48.116;11.590;2023-10-19T11:58:52;93734.08;;;18.27;81.52
17373;BME280;8803;48.116;11.590;2023-10-19T12:00:57;93727.17;;;18.31;82.01
17373;BME280;8803;48.116;11.590;2023-10-19T12:03:01;93721.03;;;18.33;83.57
17373;BME280;8803;48.116;11.590;2023-10-19T12:05:09;93719.44;;;18.34;84.21
17373;BME280;8803;48.116;11.590;2023-10-19T12:07:13;93718.99;;;18.37;84.47
17373;BME280;8803;48.116;11.590;2023-10-19T12:09:18;93708.36;;;18.42;84.31
17373;BME280;8803;48.116;11.590;2023-10-19T12:11:25;93713.05;;;18.26;87.14
17373;BME280;8803;48.116;11.590;2023-10-19T12:13:29;93709.50;;;18.35;85.93
17373;BME280;8803;48.116;11.590;2023-10-19T12:15:34;93721.83;;;18.42;85.68
17373;BME280;8803;48.116;11.590;2023-10-19T12:17:39;93723.24;;;18.45;85.40
17373;BME280;8803;48.116;11.590;2023-10-19T12:19:43;93731.53;;;18.52;83.34
17373;BME280;8803;48.116;11.590;2023-10-19T12:21:48;93729.66;;;18.53;79.96
17373;BME280;8803;48.116;11.590;2023-10-19T12:23:53;93735.27;;;18.51;80.77
17373;BME280;8803;48.116;11.590;2023-10-19T12:25:59;93721.72;;;18.49;77.57
17373;BME280;8803;48.116;11.590;2023-10-19T12:28:06;93722.27;;;18.48;79.94
17373;BME280;8803;48.116;11.590;2023-10-19T12:30:13;93717.68;;;18.49;80.59
17373;BME280;8803;48.116;11.590;2023-10-19T12:32:24;93712.02;;;18.48;81.20
17373;BME280;8803;48.116;11.590;2023-10-19T12:34:28;93709.84;;;18.47;81.40
17373;BME280;8803;48.116;11.590;2023-10-19T12:36:33;93700.41;;;18.47;81.61
17373;BME280;8803;48.116;11.590;2023-10-19T12:38:38;93705.59;;;18.40;85.26
17373;BME280;8803;48.116;11.590;2023-10-19T12:42:59;93678.51;;;18.23;88.55
17373;BME280;8803;48.116;11.590;2023-10-19T12:45:08;93678.09;;;18.17;89.29
17373;BME280;8803;48.116;11.590;2023-10-19T12:47:14;93678.82;;;18.36;85.29